Stations météo

réclame
Mon MeteoGroup
Cardiff, Grande-Bretagne (3715): Température de l'air & dewpoint: 17.09.2018 01:00:00 - 23.09.2018 01:00:00 (BST)Cardiff, Grande-Bretagne (3715): Vitesse du vent: 17.09.2018 01:00:00 - 23.09.2018 01:00:00 (BST)Cardiff, Grande-Bretagne (3715): Direction du vent: 17.09.2018 01:00:00 - 23.09.2018 01:00:00 (BST)Cardiff, Grande-Bretagne (3715): visibility: 17.09.2018 01:00:00 - 23.09.2018 01:00:00 (BST)
Date & Time tt [°C] td [°C] ff [km/h] ff [knt] dd vv [km]
23.09.2018 01:00:00 10,0 9,0 21 11 NE 10
23.09.2018 00:00:00 10,0 9,0 22 12 NE 10
22.09.2018 23:00:00 10,0 9,0 21 11 NE 10
22.09.2018 22:00:00 10,0 9,0 22 12 ENE 10
22.09.2018 21:00:00 10,0 10,0 26 14 ENE 5
22.09.2018 20:00:00 10,0 10,0 28 15 ENE 3,5
22.09.2018 19:00:00 10,0 10,0 24 13 ENE 2,5
22.09.2018 18:00:00 11,0 10,0 28 15 ENE 7
22.09.2018 17:00:00 10,0 10,0 26 14 ENE 4,0
22.09.2018 16:00:00 10,0 10,0 22 12 E 4,5
22.09.2018 15:00:00 10,0 9,0 21 11 E 4,0
22.09.2018 14:00:00 10,0 9,0 18 10 E 8
22.09.2018 13:00:00 11,0 9,0 16 9 SE 9
22.09.2018 12:00:00 11,0 9,0 9 5 SSE 9
22.09.2018 11:00:00 11,0 9,0 5 3 - 10
22.09.2018 10:00:00 11,0 9,0 9 5 W 10
22.09.2018 09:00:00 11,0 9,0 15 8 W 10
22.09.2018 08:00:00 11,0 9,0 9 5 WNW 8
22.09.2018 07:00:00 11,0 9,0 8 4 SSW 4,9
22.09.2018 06:00:00 11,0 9,0 8 4 N 10
22.09.2018 05:00:00 10,0 9,0 8 4 NW 10
22.09.2018 04:00:00 10,0 9,0 13 7 NNW 10
22.09.2018 03:00:00 10,0 9,0 13 7 NW 10
22.09.2018 02:00:00 10,0 8,0 11 6 WNW 10
22.09.2018 01:00:00 11,0 9,0 9 5 NW 10
22.09.2018 00:00:00 11,0 9,0 16 9 WNW 10
21.09.2018 23:00:00 13,0 9,0 24 13 W 10
21.09.2018 22:00:00 13,0 9,0 22 12 W 10
21.09.2018 21:00:00 13,0 9,0 24 13 W 10
21.09.2018 20:00:00 13,0 9,0 26 14 W 10
21.09.2018 19:00:00 13,0 8,0 29 16 W 10
21.09.2018 18:00:00 14,0 9,0 41 22 W 10
21.09.2018 17:00:00 14,0 9,0 35 19 W 10
21.09.2018 16:00:00 14,0 9,0 41 22 W 10
21.09.2018 15:00:00 13,0 9,0 44 24 WNW 10
21.09.2018 14:00:00 13,0 10,0 46 25 W 8
21.09.2018 13:00:00 13,0 10,0 42 23 W 10
21.09.2018 12:00:00 14,0 9,0 48 26 W 10
21.09.2018 11:00:00 14,0 7,0 42 23 W 10
21.09.2018 10:00:00 12,0 7,0 34 18 W 10
21.09.2018 09:00:00 11,0 7,0 26 14 W 10
21.09.2018 08:00:00 10,0 7,0 34 18 NW 10
21.09.2018 07:00:00 10,0 7,0 24 13 WNW 10
21.09.2018 06:00:00 9,0 7,0 26 14 WNW 10
21.09.2018 05:00:00 9,0 6,0 29 16 WNW 10
21.09.2018 04:00:00 9,0 7,0 41 22 WNW 10
21.09.2018 03:00:00 11,0 9,0 34 18 WNW 1,9
21.09.2018 02:00:00 12,0 10,0 35 19 W 10
21.09.2018 01:00:00 13,0 11,0 46 25 W 10
21.09.2018 00:00:00 15,0 13,0 44 24 W 10
20.09.2018 23:00:00 17,0 15,0 31 17 WSW 10
20.09.2018 22:00:00 18,0 16,0 37 20 SSW 10
20.09.2018 21:00:00 18,0 16,0 29 16 SSW 8
20.09.2018 20:00:00 18,0 16,0 28 15 SSW 10
20.09.2018 19:00:00 18,0 16,0 28 15 SSW 10
20.09.2018 18:00:00 19,0 16,0 29 16 SSW 10
20.09.2018 17:00:00 18,0 16,0 28 15 SW 10
20.09.2018 16:00:00 18,0 16,0 26 14 SSW 10
20.09.2018 15:00:00 18,0 16,0 22 12 SSW 10
20.09.2018 14:00:00 18,0 16,0 26 14 SSW 10
20.09.2018 13:00:00 18,0 16,0 29 16 SSW 10
20.09.2018 12:00:00 18,0 16,0 24 13 SSW 10
20.09.2018 11:00:00 15,0 15,0 15 8 SE 10
20.09.2018 10:00:00 13,0 13,0 11 6 E 3,0
20.09.2018 09:00:00 13,0 13,0 8 4 ENE 3,0
20.09.2018 08:00:00 13,0 12,0 8 4 ESE 4,0
20.09.2018 07:00:00 12,0 12,0 5 3 NE 10
20.09.2018 06:00:00 12,0 11,0 9 5 N 5
20.09.2018 05:00:00 12,0 11,0 11 6 N 1,7
20.09.2018 04:00:00 12,0 11,0 8 4 NNE 2,6
20.09.2018 03:00:00 12,0 11,0 9 5 NNW 10
20.09.2018 02:00:00 12,0 12,0 13 7 NW 2,2
20.09.2018 01:00:00 13,0 12,0 9 5 W 2,1
20.09.2018 00:00:00 13,0 12,0 15 8 W 3,8
19.09.2018 23:00:00 13,0 12,0 15 8 W 7
19.09.2018 22:00:00 13,0 11,0 16 9 W 10
19.09.2018 21:00:00 14,0 10,0 22 12 W 10
19.09.2018 20:00:00 14,0 12,0 22 12 W 10
19.09.2018 19:00:00 15,0 11,0 24 13 W 10
19.09.2018 18:00:00 15,0 12,0 26 14 W 10
19.09.2018 17:00:00 15,0 13,0 24 13 W 10
19.09.2018 16:00:00 16,0 14,0 28 15 W 6
19.09.2018 15:00:00 16,0 14,0 35 19 W 3,4
19.09.2018 14:00:00 19,0 15,0 34 18 WSW 10
19.09.2018 13:00:00 19,0 13,0 35 19 WSW 10
19.09.2018 12:00:00 20,0 14,0 28 15 WSW 10
19.09.2018 11:00:00 19,0 14,0 29 16 SW 10
19.09.2018 10:00:00 19,0 14,0 26 14 SW 10
19.09.2018 09:00:00 18,0 14,0 28 15 SW 10
19.09.2018 08:00:00 17,0 13,0 26 14 SW 10
19.09.2018 07:00:00 16,0 14,0 21 11 SSW 10
19.09.2018 06:00:00 16,0 14,0 21 11 SSW 10
19.09.2018 05:00:00 16,0 14,0 24 13 SW 10
19.09.2018 04:00:00 16,0 14,0 21 11 SW 10
19.09.2018 03:00:00 16,0 14,0 21 11 SW 10
19.09.2018 02:00:00 16,0 14,0 18 10 WSW 10
19.09.2018 01:00:00 17,0 15,0 16 9 WSW 10
19.09.2018 00:00:00 17,0 15,0 21 11 WSW 10
18.09.2018 23:00:00 18,0 15,0 22 12 SW 10
18.09.2018 22:00:00 18,0 14,0 22 12 SW 10
18.09.2018 21:00:00 18,0 15,0 24 13 SW 10
18.09.2018 20:00:00 18,0 15,0 24 13 SW 10
18.09.2018 19:00:00 19,0 15,0 26 14 SW 10
18.09.2018 18:00:00 19,0 15,0 18 10 SSW 10
18.09.2018 17:00:00 19,0 16,0 16 9 SW 10
18.09.2018 16:00:00 20,0 16,0 16 9 SW 10
18.09.2018 15:00:00 19,0 16,0 21 11 WSW 10
18.09.2018 14:00:00 18,0 15,0 24 13 WSW 10
18.09.2018 13:00:00 18,0 15,0 28 15 WSW 10
18.09.2018 12:00:00 18,0 15,0 26 14 WSW 10
18.09.2018 11:00:00 17,0 14,0 31 17 W 10
18.09.2018 10:00:00 17,0 13,0 37 20 W 10
18.09.2018 09:00:00 16,0 13,0 37 20 W 10
18.09.2018 08:00:00 16,0 14,0 37 20 WSW 10
18.09.2018 07:00:00 17,0 15,0 34 18 WSW 10
18.09.2018 06:00:00 18,0 16,0 22 12 WSW 10
18.09.2018 05:00:00 18,0 15,0 26 14 SW 10
18.09.2018 04:00:00 19,0 16,0 31 17 SSW 10
18.09.2018 03:00:00 18,0 16,0 26 14 S 10
18.09.2018 02:00:00 18,0 16,0 22 12 S 10
18.09.2018 01:00:00 18,0 16,0 26 14 S 10
18.09.2018 00:00:00 18,0 15,0 26 14 S 10
17.09.2018 23:00:00 17,0 14,0 13 7 SSE 10
17.09.2018 22:00:00 17,0 14,0 13 7 SSE 10
17.09.2018 21:00:00 16,0 13,0 18 10 SE 10
17.09.2018 20:00:00 17,0 14,0 21 11 SSE 10
17.09.2018 19:00:00 18,0 14,0 13 7 SE 10
17.09.2018 18:00:00 19,0 14,0 16 9 S 10
17.09.2018 17:00:00 19,0 15,0 21 11 S 10
17.09.2018 16:00:00 19,0 16,0 22 12 S 10
17.09.2018 15:00:00 19,0 16,0 22 12 S 10
17.09.2018 14:00:00 19,0 17,0 16 9 S 10
17.09.2018 13:00:00 18,0 17,0 18 10 S 10
17.09.2018 12:00:00 18,0 17,0 16 9 S 10
17.09.2018 11:00:00 18,0 17,0 16 9 S 10
17.09.2018 10:00:00 18,0 17,0 18 10 S 10
17.09.2018 09:00:00 18,0 17,0 13 7 S 10
17.09.2018 08:00:00 18,0 16,0 9 5 S 10
17.09.2018 07:00:00 17,0 16,0 13 7 SSW 10
17.09.2018 06:00:00 18,0 17,0 9 5 S 10
17.09.2018 05:00:00 17,0 17,0 9 5 S 10
17.09.2018 04:00:00 18,0 17,0 11 6 SSW 10
17.09.2018 03:00:00 17,0 17,0 8 4 S 10
17.09.2018 02:00:00 17,0 16,0 8 4 SE 10
17.09.2018 01:00:00 16,0 16,0 4 2 - 10

tt = Température de l'air
td = dewpoint
ff = Vitesse du vent
dd = Direction du vent
vv = visibility

stations d'obs. à proximité